Latest Coastal Weather Observations for Ceduna

IDS60701

Issued at 9:41 am CST Saturday 20 April 2024 (issued every 10 minutes, with the page automatically refreshed every 10 minutes)

About coastal observations | Map of coastal stations | Coastal observations for SA | Marine services | Other Formats
Station Details ID: 018012 Name: CEDUNA AMO Lat: -32.13 Lon: 133.70 Height: 15.3 m
Data from the previous 72 hours. | See also: Recent months at Ceduna
Date/Time
CST
Wind Sea
Height
m
Swell Vis
km
Cloud Weather Temp
°C
Press
MSL
hPa
Rain since
9am
mm
Dir  Spd
kts
Gust
kts
Height
m
Period
s
Dir
20/09:30am E 10 13 - - - - 10 Clear - 15.1 1030.9 0.0
20/09:00am ESE 9 10 - - - - 10 - - 13.6 1031.0 0.0
20/08:30am ESE 7 10 - - - - 10 - - 11.6 1030.8 0.0
20/08:00am E 3 5 - - - - 10 - - 8.5 1030.7 0.0
20/07:30am E 4 5 - - - - 10 - - 6.1 1030.3 0.0
20/07:00am E 5 6 - - - - 10 - - 6.2 1030.3 0.0
20/06:30am ESE 6 8 - - - - 10 - - 6.3 1030.1 0.0
20/06:00am ESE 7 9 - - - - 10 - - 6.6 1030.1 0.0
20/05:30am ESE 6 7 - - - - 10 - - 6.4 1030.0 0.0
20/05:00am ESE 7 8 - - - - 10 - - 6.3 1029.7 0.0
20/04:30am ESE 7 8 - - - - 10 - - 6.6 1029.5 0.0
20/04:00am ESE 7 9 - - - - 10 - - 6.4 1029.3 0.0
20/03:30am ESE 5 7 - - - - 10 - - 6.9 1029.2 0.0
20/03:00am ESE 5 8 - - - - 10 - - 7.8 1029.4 0.0
20/02:30am SE 8 9 - - - - 10 - - 9.0 1029.4 0.0
20/02:00am ESE 9 10 - - - - 10 - - 9.5 1029.4 0.0
20/01:30am ESE 9 11 - - - - 10 - - 9.7 1029.3 0.0
20/01:00am ESE 9 11 - - - - 10 - - 10.6 1029.3 0.0
20/12:30am SE 10 11 - - - - 10 - - 11.8 1029.3 0.0
20/12:00am SE 9 10 - - - - 10 - - 12.5 1029.4 0.0
 
Date/Time
CST
Wind Sea
Height
m
Swell Vis
km
Cloud Weather Temp
°C
Press
MSL
hPa
Rain since
9am
mm
Dir  Spd
kts
Gust
kts
Height
m
Period
s
Dir
19/11:30pm SSE 9 10 - - - - 10 - - 12.7 1029.4 0.0
19/11:00pm SSE 8 10 - - - - 10 - - 12.9 1029.4 0.0
19/10:30pm SSE 9 12 - - - - 10 - - 13.8 1029.3 0.0
19/10:00pm SSE 10 13 - - - - 10 - - 14.0 1029.2 0.0
19/09:30pm SSE 9 12 - - - - 10 - - 13.9 1029.1 0.0
19/09:00pm SSE 10 13 - - - - 10 - - 14.3 1028.8 0.0
19/08:30pm SSE 10 12 - - - - 10 - - 14.5 1028.7 0.0
19/08:00pm SSE 12 16 - - - - 10 - - 14.9 1028.4 0.0
19/07:30pm SSE 12 16 - - - - 10 - - 15.0 1028.4 0.0
19/07:00pm SSE 12 16 - - - - 10 - - 15.2 1028.1 0.0
19/06:30pm SSE 12 15 - - - - 10 - - 15.4 1028.0 0.0
19/06:00pm SSE 14 17 - - - - 10 - - 15.8 1028.0 0.0
19/05:30pm SSE 17 23 - - - - 10 - - 16.4 1027.9 0.0
19/05:00pm SSE 18 24 - - - - 10 - - 17.2 1027.6 0.0
19/04:30pm S 16 20 - - - - 10 - - 17.5 1027.6 0.0
19/04:00pm SSE 20 25 - - - - 10 Partly cloudy - 17.8 1027.5 0.0
19/03:30pm SSE 18 24 - - - - 10 Partly cloudy - 18.3 1027.1 0.0
19/03:00pm S 18 23 - - - - 10 Cloudy - 18.4 1027.0 0.0
19/02:30pm S 17 22 - - - - 10 Partly cloudy - 18.7 1026.7 0.0
19/02:00pm S 17 21 - - - - 10 Partly cloudy - 18.7 1026.7 0.0
19/01:49pm S 16 19 - - - - 10 Partly cloudy - 18.5 1026.8 0.0
19/01:30pm S 15 18 - - - - 10 Partly cloudy - 18.4 1027.0 0.0
19/01:00pm SSW 12 16 - - - - 10 Partly cloudy - 17.9 1027.2 0.0
19/12:55pm SSW 13 17 - - - - 10 Partly cloudy - 18.6 1027.2 0.0
19/12:30pm SSW 12 16 - - - - 10 Partly cloudy - 20.1 1027.3 0.0
19/12:00pm SSW 11 15 - - - - 10 Cloudy - 18.9 1027.6 0.0
19/11:43am SW 12 15 - - - - 10 Partly cloudy - 18.7 1027.7 0.0
19/11:30am SW 10 13 - - - - 10 Partly cloudy - 18.4 1027.9 0.0
19/11:06am SW 10 12 - - - - 10 Partly cloudy - 17.7 1028.1 0.0
19/11:00am SW 10 12 - - - - 10 Partly cloudy - 18.0 1028.1 0.0
19/10:30am SW 9 11 - - - - 10 Partly cloudy - 17.7 1028.1 0.0
19/10:00am SW 7 9 - - - - 10 Cloudy - 17.4 1028.1 0.0
19/09:30am SW 5 7 - - - - 10 Cloudy - 17.2 1028.2 0.0
19/09:00am SSW 6 8 - - - - 10 Cloudy - 17.1 1028.2 0.0
19/08:30am SSW 4 6 - - - - 10 Partly cloudy - 16.5 1028.1 0.0
19/08:00am CALM 0 0 - - - - 10 Partly cloudy - 15.4 1027.7 0.0
19/07:30am CALM 0 0 - - - - 10 Partly cloudy - 15.0 1027.5 0.0
19/07:00am S 3 4 - - - - 10 Cloudy - 14.8 1027.3 0.0
19/06:30am S 5 6 - - - - 10 Cloudy - 14.8 1027.0 0.0
19/06:19am S 5 7 - - - - 10 Partly cloudy - 14.8 1027.1 0.0
19/06:00am SSE 7 8 - - - - 10 Cloudy - 15.0 1026.9 0.0
19/05:31am S 5 6 - - - - 10 Partly cloudy - 15.3 1026.7 0.0
19/05:30am S 5 6 - - - - 10 Partly cloudy - 15.3 1026.7 0.0
19/05:00am SSW 6 8 - - - - 10 Partly cloudy - 15.4 1026.8 0.0
19/04:30am SSW 7 9 - - - - 10 Cloudy - 15.3 1026.7 0.0
19/04:00am SSW 7 8 - - - - 10 Partly cloudy - 14.9 1026.5 0.0
19/03:30am SSW 6 8 - - - - 10 Partly cloudy - 14.6 1026.2 0.0
19/03:00am SW 5 6 - - - - 10 Mostly clear - 14.2 1026.3 0.0
19/02:30am SW 7 8 - - - - 10 Partly cloudy - 15.3 1026.7 0.0
19/02:00am S 3 8 - - - - 10 Partly cloudy - 14.9 1027.0 0.0
19/01:30am CALM 0 0 - - - - 10 Partly cloudy - 12.4 1027.1 0.0
19/01:00am S 4 5 - - - - 10 Cloudy - 12.2 1027.2 0.0
19/12:30am S 3 4 - - - - 10 Cloudy - 11.9 1027.4 0.0
19/12:00am CALM 0 0 - - - - 10 Cloudy - 11.2 1027.6 0.0
 
Date/Time
CST
Wind Sea
Height
m
Swell Vis
km
Cloud Weather Temp
°C
Press
MSL
hPa
Rain since
9am
mm
Dir  Spd
kts
Gust
kts
Height
m
Period
s
Dir
18/11:30pm CALM 0 0 - - - - 10 Cloudy - 11.4 1027.8 0.0
18/11:00pm CALM 0 0 - - - - 10 Cloudy - 10.3 1028.2 0.0
18/10:30pm CALM 0 0 - - - - 10 - - 8.9 1028.4 0.0
18/10:00pm S 1 4 - - - - 10 - - 10.1 1028.5 0.0
18/09:30pm S 3 4 - - - - 10 - - 9.8 1028.4 0.0
18/09:00pm S 4 5 - - - - 10 - - 11.4 1028.4 0.0
18/08:30pm S 5 6 - - - - 10 - - 12.6 1028.3 0.0
18/08:00pm S 5 6 - - - - 10 Partly cloudy - 13.5 1028.3 0.0
18/07:30pm S 5 7 - - - - 10 Partly cloudy - 14.6 1028.2 0.0
18/07:00pm S 6 8 - - - - 10 Partly cloudy - 14.9 1028.0 0.0
18/06:30pm SSW 7 9 - - - - 10 Partly cloudy - 15.3 1027.8 0.0
18/06:00pm S 8 10 - - - - 10 - - 15.7 1027.7 0.0
18/05:30pm S 10 14 - - - - 10 - - 16.9 1027.7 0.0
18/05:00pm S 11 15 - - - - 10 - - 17.2 1027.8 0.0
18/04:30pm S 12 14 - - - - 10 - - 18.0 1027.8 0.0
18/04:00pm S 12 15 - - - - 10 - - 17.9 1027.9 0.0
18/03:30pm S 13 16 - - - - 10 - - 18.1 1028.0 0.0
18/03:00pm S 13 17 - - - - 10 - - 18.1 1028.0 0.0
18/02:30pm S 16 21 - - - - 10 - - 18.3 1027.9 0.0
18/02:00pm S 15 21 - - - - 10 - - 18.8 1028.1 0.0
18/01:30pm S 12 21 - - - - 10 - - 18.5 1028.5 0.0
18/01:00pm SSE 12 17 - - - - 10 - - 18.4 1028.8 0.0
18/12:30pm S 12 15 - - - - 10 Partly cloudy - 18.7 1029.3 0.0
18/12:00pm SSW 12 17 - - - - 10 Mostly cloudy - 18.3 1029.7 0.0
18/11:30am S 11 16 - - - - 10 Partly cloudy - 17.5 1029.9 0.0
18/11:00am S 10 13 - - - - 10 Partly cloudy - 17.6 1030.1 0.0
18/10:30am SSE 11 15 - - - - 10 Partly cloudy - 16.9 1030.4 0.0
18/10:00am SE 9 13 - - - - 10 Partly cloudy - 16.7 1030.5 0.0
18/09:30am SSE 8 11 - - - - 10 Partly cloudy - 15.6 1030.5 0.0
18/09:00am SSE 9 12 - - - - 10 - - 14.8 1030.4 0.2
18/08:30am SE 5 8 - - - - 10 - - 13.1 1030.4 0.2
18/08:00am ESE 3 5 - - - - 10 - - 10.3 1030.1 0.2
18/07:30am ESE 6 7 - - - - 10 - - 6.4 1029.6 0.2
18/07:00am SE 4 5 - - - - 10 - - 6.2 1029.1 0.2
18/06:30am SE 6 7 - - - - 10 - - 7.0 1029.0 0.2
18/06:00am SE 5 6 - - - - 10 - - 6.5 1028.7 0.2
18/05:30am SE 4 4 - - - - 10 - - 6.7 1028.6 0.2
18/05:00am SE 4 4 - - - - 10 - - 6.5 1028.2 0.2
18/04:30am SE 3 4 - - - - 10 - - 7.1 1028.0 0.2
18/04:00am SE 3 4 - - - - 10 - - 6.0 1028.0 0.2
18/03:30am SE 3 3 - - - - 10 - - 7.4 1028.0 0.2
18/03:00am SE 3 4 - - - - 10 - - 8.6 1028.1 0.2
18/02:30am SE 3 4 - - - - 10 - - 8.3 1028.0 0.2
18/02:00am SE 4 5 - - - - 10 - - 9.3 1028.0 0.2
18/01:30am SE 7 8 - - - - 10 - - 10.2 1028.0 0.2
18/01:00am SE 6 7 - - - - 10 - - 11.4 1028.2 0.2
18/12:30am SE 8 10 - - - - 10 - - 12.7 1028.2 0.2
18/12:00am SE 9 11 - - - - 10 - - 13.4 1028.5 0.2
 
Date/Time
CST
Wind Sea
Height
m
Swell Vis
km
Cloud Weather Temp
°C
Press
MSL
hPa
Rain since
9am
mm
Dir  Spd
kts
Gust
kts
Height
m
Period
s
Dir
17/11:30pm SE 9 11 - - - - 10 - - 13.6 1028.8 0.2
17/11:00pm SSE 11 13 - - - - 10 - - 13.9 1029.0 0.2
17/10:30pm SSE 11 14 - - - - 10 - - 13.8 1029.1 0.2
17/10:00pm SSE 10 15 - - - - 10 - - 14.1 1029.1 0.2
17/09:30pm SSE 12 15 - - - - 10 - - 14.6 1028.9 0.2
17/09:00pm SSE 13 16 - - - - 10 - - 14.9 1028.7 0.2
17/08:30pm S 10 15 - - - - 10 - - 14.8 1028.7 0.2
17/08:00pm S 10 14 - - - - 10 - - 14.9 1028.6 0.2
17/07:30pm S 11 15 - - - - 10 - - 15.3 1028.5 0.2
17/07:00pm SSW 11 15 - - - - 10 - - 15.4 1028.1 0.2
17/06:30pm S 9 12 - - - - 10 - - 15.5 1027.7 0.2
17/06:00pm SSW 10 13 - - - - 10 - - 16.1 1027.4 0.2
17/05:30pm S 12 15 - - - - 10 - - 17.1 1027.3 0.2
17/05:00pm S 14 18 - - - - 10 - - 17.8 1027.5 0.2
17/04:30pm S 14 19 - - - - 10 - - 17.8 1027.4 0.2
17/04:00pm S 16 20 - - - - 10 - - 18.4 1027.3 0.2
17/03:30pm S 15 19 - - - - 10 - - 19.1 1027.2 0.2
17/03:00pm S 13 17 - - - - 10 - - 19.6 1027.3 0.2
17/02:30pm S 15 18 - - - - 10 - - 19.0 1027.3 0.2
17/02:00pm S 14 19 - - - - 10 - - 20.1 1027.5 0.2
17/01:30pm S 15 20 - - - - 10 - - 20.2 1027.7 0.2
17/01:00pm S 15 20 - - - - 10 - - 19.8 1028.2 0.2
17/12:30pm S 14 19 - - - - 10 - - 20.1 1028.6 0.2
17/12:00pm SSE 12 17 - - - - 10 - Recent precip. 19.9 1029.0 0.2
17/11:30am SE 11 17 - - - - 10 Partly cloudy - 20.3 1029.3 0.2
17/11:00am SE 12 17 - - - - 10 - - 19.2 1029.6 0.0
17/10:30am SE 14 17 - - - - 10 - - 18.5 1029.8 0.0
17/10:00am SE 15 19 - - - - 10 - - 17.5 1029.9 0.0

Other formats

Comma delimited format used in spreadsheet applications
http://www.bom.gov.au/fwo/IDS60701/IDS60701.94653.axf

JavaScript Object Notation format (JSON) in row-major order
http://www.bom.gov.au/fwo/IDS60701/IDS60701.94653.json

Data quality

Most of these data are generated automatically and are frequently updated. Quality checks on data are not normally performed. It is possible for incorrect values to appear. Refer to information at About Latest Weather Observations and please check the disclaimer before using these data.